Time;durP1;ratioP1;P1;durP2;ratioP2;P2;SDS_P1;SDS_P2;PMS_P1;PMS_P2;Temp;Humidity;BMP_temperature;BMP_pressure;BME280_temperature;BME280_humidity;BME280_pressure;Samples;Min_cycle;Max_cycle;Signal;HPM_P1;HPM_P2
2022/05/12 00:01:05;;;;;;;2.90;1.42;;;14.80;91.70;;;;;;5016238;28;98532;-72
2022/05/12 00:03:32;;;;;;;2.50;1.50;;;14.70;91.80;;;;;;5032326;28;99146;-72
2022/05/12 00:05:59;;;;;;;2.95;1.63;;;14.70;91.90;;;;;;5015207;28;100837;-72
2022/05/12 00:08:26;;;;;;;5.00;1.50;;;14.60;91.90;;;;;;5034225;28;98481;-72
2022/05/12 00:10:54;;;;;;;2.47;0.90;;;14.50;92.00;;;;;;5015593;28;98610;-72
2022/05/12 00:13:21;;;;;;;4.35;1.60;;;14.40;92.10;;;;;;5015687;28;101834;-72
2022/05/12 00:15:52;;;;;;;4.45;1.92;;;14.40;92.20;;;;;;5015664;28;98900;-72
2022/05/12 00:18:20;;;;;;;2.95;1.00;;;14.40;92.00;;;;;;5033865;28;98498;-72
2022/05/12 00:20:47;;;;;;;3.08;1.30;;;14.30;92.00;;;;;;5033638;28;98525;-72
2022/05/12 00:23:21;;;;;;;4.07;1.67;;;14.30;92.10;;;;;;4998721;28;116314;-72
2022/05/12 00:25:49;;;;;;;4.63;1.70;;;14.30;92.20;;;;;;5033418;28;98543;-72
2022/05/12 00:28:20;;;;;;;3.17;1.30;;;14.30;92.00;;;;;;4999570;28;98542;-72
2022/05/12 00:30:49;;;;;;;2.20;1.00;;;14.20;92.20;;;;;;5033430;28;99215;-72
2022/05/12 00:33:22;;;;;;;4.35;1.67;;;14.10;92.20;;;;;;5031804;28;102102;-72
2022/05/12 00:35:49;;;;;;;3.20;1.37;;;14.10;92.30;;;;;;5014949;28;101692;-72
2022/05/12 00:38:16;;;;;;;2.67;1.23;;;14.10;92.50;;;;;;5033923;28;98522;-72
2022/05/12 00:40:46;;;;;;;2.20;1.05;;;14.00;92.50;;;;;;5033480;28;98543;-72
2022/05/12 00:43:37;;;;;;;2.58;1.33;;;14.00;92.70;;;;;;5033189;28;99385;-72
2022/05/12 00:46:11;;;;;;;2.72;1.40;;;14.00;92.70;;;;;;5033289;28;98948;-72
2022/05/12 00:48:39;;;;;;;2.08;0.70;;;13.90;92.90;;;;;;5015761;28;97845;-72
2022/05/12 00:51:09;;;;;;;2.65;1.00;;;13.90;93.10;;;;;;4998657;28;98657;-72
2022/05/12 00:53:38;;;;;;;1.83;1.50;;;13.80;93.20;;;;;;5014824;28;104809;-72
2022/05/12 00:56:09;;;;;;;2.85;1.33;;;13.70;92.90;;;;;;5031145;28;101587;-72
2022/05/12 00:58:37;;;;;;;2.67;1.30;;;13.70;93.00;;;;;;5033561;28;98486;-72
2022/05/12 01:01:08;;;;;;;1.45;1.08;;;13.70;93.20;;;;;;5033273;28;98497;-72
2022/05/12 01:03:39;;;;;;;3.35;1.60;;;13.70;93.20;;;;;;5014582;28;102056;-72
2022/05/12 01:06:08;;;;;;;2.15;1.73;;;13.60;93.30;;;;;;5031293;28;101648;-72
2022/05/12 01:08:35;;;;;;;3.08;1.35;;;13.60;93.30;;;;;;5032220;28;98497;-72
2022/05/12 01:11:22;;;;;;;3.40;1.20;;;13.60;93.40;;;;;;5014872;28;98592;-72
2022/05/12 01:13:54;;;;;;;3.78;1.60;;;13.60;93.40;;;;;;5032794;28;104957;-72
2022/05/12 01:16:46;;;;;;;5.13;2.03;;;13.50;93.40;;;;;;5032882;28;98529;-72
2022/05/12 01:19:23;;;;;;;2.55;0.90;;;13.50;93.40;;;;;;5031724;28;98507;-72
2022/05/12 01:21:51;;;;;;;2.65;0.90;;;13.50;93.50;;;;;;5014253;28;99682;-72
2022/05/12 01:24:21;;;;;;;2.97;1.33;;;13.40;93.50;;;;;;5031078;28;102028;-72
2022/05/12 01:26:49;;;;;;;1.77;1.30;;;13.40;93.40;;;;;;5014681;28;98809;-72
2022/05/12 01:29:16;;;;;;;4.47;1.40;;;13.30;93.40;;;;;;4998368;28;98496;-72
2022/05/12 01:31:43;;;;;;;2.22;1.20;;;13.30;93.40;;;;;;5033001;28;98570;-72
2022/05/12 01:34:11;;;;;;;3.90;1.63;;;13.30;93.40;;;;;;5032631;28;99307;-72
2022/05/12 01:36:39;;;;;;;1.83;0.75;;;13.20;93.40;;;;;;5032575;28;98856;-72
2022/05/12 01:39:08;;;;;;;2.22;1.30;;;13.20;93.40;;;;;;5031527;28;97916;-72
2022/05/12 01:41:35;;;;;;;1.27;0.95;;;13.20;93.40;;;;;;5030748;28;99963;-72
2022/05/12 01:44:04;;;;;;;5.55;1.00;;;13.10;93.30;;;;;;5032456;28;99236;-72
2022/05/12 01:46:31;;;;;;;3.75;1.63;;;13.20;93.40;;;;;;5031932;28;99214;-72
2022/05/12 01:48:59;;;;;;;2.40;1.10;;;13.10;93.40;;;;;;5032599;28;98567;-72
2022/05/12 01:51:27;;;;;;;4.68;1.92;;;13.10;93.70;;;;;;5014457;28;98564;-72
2022/05/12 01:53:53;;;;;;;2.85;1.33;;;13.10;93.50;;;;;;5031897;28;99000;-72
2022/05/12 01:56:21;;;;;;;3.55;1.60;;;13.00;93.80;;;;;;5014015;28;101563;-72
2022/05/12 01:58:47;;;;;;;3.80;1.33;;;13.00;93.60;;;;;;5031275;28;98514;-72
2022/05/12 02:01:14;;;;;;;2.70;1.40;;;13.00;93.60;;;;;;4997599;28;98545;-72
2022/05/12 02:03:42;;;;;;;2.67;1.63;;;13.00;93.70;;;;;;5014532;28;99067;-72
2022/05/12 02:06:09;;;;;;;1.95;1.75;;;13.00;93.70;;;;;;5013711;28;100899;-72
2022/05/12 02:08:36;;;;;;;4.55;1.00;;;12.90;93.70;;;;;;5014073;28;98529;-72
2022/05/12 02:11:03;;;;;;;2.65;1.23;;;12.90;93.80;;;;;;5013547;28;99384;-72
2022/05/12 02:13:30;;;;;;;2.85;1.33;;;12.80;93.80;;;;;;5030630;28;99772;-72
2022/05/12 02:15:57;;;;;;;4.45;1.60;;;12.80;94.00;;;;;;5031836;28;99034;-72
2022/05/12 02:18:26;;;;;;;4.13;1.45;;;12.70;93.90;;;;;;5026837;28;98524;-72
2022/05/12 02:20:53;;;;;;;2.70;1.40;;;12.70;94.20;;;;;;5014079;28;99011;-72
2022/05/12 02:23:20;;;;;;;2.90;1.40;;;12.70;94.00;;;;;;5015232;28;99439;-72
2022/05/12 02:25:47;;;;;;;4.90;2.85;;;12.60;94.00;;;;;;5013955;28;101534;-72
2022/05/12 02:28:14;;;;;;;3.50;1.55;;;12.60;94.10;;;;;;5015872;28;97727;-72
2022/05/12 02:30:41;;;;;;;2.45;1.42;;;12.60;94.20;;;;;;5015792;28;98499;-72
2022/05/12 02:33:09;;;;;;;3.17;1.55;;;12.60;94.30;;;;;;5014943;28;99591;-72
2022/05/12 02:35:37;;;;;;;4.72;2.15;;;12.50;94.30;;;;;;5013527;28;99247;-72
2022/05/12 02:38:05;;;;;;;2.33;1.63;;;12.50;94.40;;;;;;5015274;28;98661;-72
2022/05/12 02:40:32;;;;;;;5.85;1.40;;;12.40;94.50;;;;;;5014097;28;98551;-72
2022/05/12 02:42:59;;;;;;;2.20;1.77;;;12.40;94.50;;;;;;5014639;28;99396;-72
2022/05/12 02:45:28;;;;;;;5.32;2.45;;;12.40;94.60;;;;;;5013740;28;98959;-72
2022/05/12 02:47:56;;;;;;;4.43;1.80;;;12.40;94.60;;;;;;5014762;28;98548;-72
2022/05/12 02:50:24;;;;;;;4.43;1.92;;;12.30;94.70;;;;;;5014014;28;98588;-72
2022/05/12 02:52:51;;;;;;;4.90;2.20;;;12.30;94.80;;;;;;5014945;28;102007;-72
2022/05/12 02:55:18;;;;;;;3.40;1.63;;;12.30;94.80;;;;;;5030027;28;100947;-72
2022/05/12 02:57:45;;;;;;;3.92;2.08;;;12.30;94.90;;;;;;5013961;28;98576;-72
2022/05/12 03:00:17;;;;;;;4.00;2.00;;;12.20;94.90;;;;;;5014436;28;99232;-72
2022/05/12 03:02:44;;;;;;;6.07;2.10;;;12.20;95.00;;;;;;5014849;28;99298;-72
2022/05/12 03:05:12;;;;;;;3.42;2.28;;;12.20;95.10;;;;;;5013598;28;99587;-72
2022/05/12 03:07:40;;;;;;;3.90;1.98;;;12.10;95.20;;;;;;5013034;28;103154;-72
2022/05/12 03:10:08;;;;;;;4.82;2.00;;;12.10;95.30;;;;;;5030404;28;98559;-72
2022/05/12 03:12:36;;;;;;;3.28;2.00;;;12.10;95.30;;;;;;5013248;28;99232;-72
2022/05/12 03:15:04;;;;;;;4.38;2.20;;;12.10;95.40;;;;;;5029301;28;100213;-72
2022/05/12 03:17:32;;;;;;;4.95;2.10;;;12.10;95.30;;;;;;5013149;28;97913;-72
2022/05/12 03:20:00;;;;;;;4.00;1.90;;;12.10;95.30;;;;;;5014334;28;98554;-72
2022/05/12 03:22:27;;;;;;;5.90;1.98;;;12.00;95.40;;;;;;5012885;28;101704;-71
2022/05/12 03:24:54;;;;;;;4.25;2.60;;;12.00;95.40;;;;;;5013721;28;99392;-72
2022/05/12 03:27:21;;;;;;;2.90;1.70;;;12.00;95.50;;;;;;5014254;28;98440;-72
2022/05/12 03:29:48;;;;;;;5.30;2.10;;;12.00;95.60;;;;;;5013426;28;98501;-72
2022/05/12 03:32:15;;;;;;;4.22;1.88;;;12.00;95.70;;;;;;5011654;28;100436;-71
2022/05/12 03:34:43;;;;;;;4.97;2.35;;;12.00;95.80;;;;;;5013029;28;99132;-72
2022/05/12 03:37:11;;;;;;;4.50;1.92;;;11.90;95.80;;;;;;5012548;28;98515;-72
2022/05/12 03:39:43;;;;;;;5.78;1.88;;;11.90;95.80;;;;;;5014659;28;98500;-72
2022/05/12 03:42:15;;;;;;;4.03;2.20;;;11.90;96.00;;;;;;5012690;28;98589;-71
2022/05/12 03:45:16;;;;;;;4.38;2.40;;;11.90;96.10;;;;;;5014157;28;99315;-72
2022/05/12 03:47:38;;;;;;;2.72;2.03;;;11.90;96.10;;;;;;5012523;28;98573;-71
2022/05/12 03:50:14;;;;;;;3.75;2.08;;;11.90;96.10;;;;;;5013643;28;99253;-71
2022/05/12 03:52:46;;;;;;;2.92;2.10;;;11.90;96.20;;;;;;5014187;28;99285;-72
2022/05/12 03:55:16;;;;;;;5.18;2.28;;;11.80;96.20;;;;;;5029172;28;101621;-72
2022/05/12 03:57:44;;;;;;;3.63;2.28;;;11.80;96.30;;;;;;5014152;28;98475;-72
2022/05/12 04:00:15;;;;;;;4.25;2.13;;;11.80;96.50;;;;;;4995856;28;98603;-71
2022/05/12 04:02:42;;;;;;;3.75;2.35;;;11.80;96.70;;;;;;5012237;28;103820;-72
2022/05/12 04:05:09;;;;;;;7.25;2.67;;;11.80;96.70;;;;;;5013562;28;99075;-72
2022/05/12 04:07:43;;;;;;;4.10;2.50;;;11.80;96.80;;;;;;4996888;28;97898;-72
2022/05/12 04:10:12;;;;;;;5.00;2.08;;;11.90;96.80;;;;;;5012645;28;98599;-72
2022/05/12 04:12:39;;;;;;;8.52;2.35;;;11.90;96.80;;;;;;5012104;28;101751;-72
2022/05/12 04:15:08;;;;;;;6.43;2.70;;;11.80;96.80;;;;;;5013171;28;99132;-71
2022/05/12 04:17:35;;;;;;;5.90;2.67;;;11.80;96.70;;;;;;4995817;28;98564;-72
2022/05/12 04:20:07;;;;;;;4.20;2.53;;;11.90;96.70;;;;;;5012557;28;98680;-72
2022/05/12 04:22:34;;;;;;;5.20;2.45;;;12.00;96.70;;;;;;5012077;28;99255;-72
2022/05/12 04:25:01;;;;;;;4.65;2.33;;;12.00;96.70;;;;;;5012359;28;98936;-71
2022/05/12 04:27:28;;;;;;;7.95;3.10;;;12.00;96.70;;;;;;5012057;28;98869;-72
2022/05/12 04:29:55;;;;;;;6.97;2.83;;;12.10;96.60;;;;;;5013863;28;98488;-72
2022/05/12 04:32:22;;;;;;;8.18;3.00;;;12.10;96.70;;;;;;5013512;28;98648;-72
2022/05/12 04:37:35;;;;;;;7.78;3.35;;;12.20;96.60;;;;;;5013782;28;98409;-72
2022/05/12 04:40:15;;;;;;;4.88;2.60;;;12.30;96.60;;;;;;5011777;28;99723;-72
2022/05/12 04:42:42;;;;;;;4.82;2.90;;;12.40;96.60;;;;;;5013020;28;99322;-72
2022/05/12 04:45:10;;;;;;;4.05;2.88;;;12.50;96.60;;;;;;5011688;28;102329;-72
2022/05/12 04:47:38;;;;;;;4.78;2.97;;;12.50;96.50;;;;;;5028778;28;98534;-72
2022/05/12 04:50:08;;;;;;;9.30;3.00;;;12.60;96.30;;;;;;5013248;28;98523;-72
2022/05/12 04:52:36;;;;;;;4.55;2.63;;;12.70;96.20;;;;;;5011530;28;101022;-72
2022/05/12 04:55:04;;;;;;;7.22;3.03;;;12.70;96.40;;;;;;5012595;28;103093;-72
2022/05/12 04:57:37;;;;;;;5.22;2.53;;;12.80;96.10;;;;;;5028920;28;98111;-72
2022/05/12 05:00:07;;;;;;;8.10;2.95;;;12.90;96.10;;;;;;5013445;28;98554;-72
2022/05/12 05:02:34;;;;;;;5.53;3.08;;;12.90;96.00;;;;;;5011105;28;105449;-72
2022/05/12 05:05:01;;;;;;;9.55;3.08;;;13.00;96.10;;;;;;5011181;28;99328;-72
2022/05/12 05:07:28;;;;;;;9.80;3.70;;;13.00;96.10;;;;;;5012668;28;98615;-72
2022/05/12 05:09:55;;;;;;;5.80;2.90;;;13.10;96.00;;;;;;5028568;28;98660;-72
2022/05/12 05:12:22;;;;;;;8.70;3.00;;;13.20;96.20;;;;;;5011087;28;101754;-72
2022/05/12 05:14:49;;;;;;;8.55;4.25;;;13.30;96.00;;;;;;5012645;28;98979;-72
2022/05/12 05:17:15;;;;;;;7.40;2.88;;;13.30;95.90;;;;;;5014019;28;102656;-72
2022/05/12 05:19:43;;;;;;;6.95;2.80;;;13.40;96.00;;;;;;5033306;28;98474;-72
2022/05/12 05:22:10;;;;;;;6.63;3.03;;;13.60;95.90;;;;;;5032773;28;100060;-72
2022/05/12 05:24:37;;;;;;;5.47;2.60;;;13.80;95.80;;;;;;5014415;28;98541;-72
2022/05/12 05:27:04;;;;;;;7.40;3.30;;;14.00;95.60;;;;;;5032854;28;98487;-72
2022/05/12 05:29:31;;;;;;;8.10;3.22;;;14.20;95.40;;;;;;5032298;28;99360;-72
2022/05/12 05:31:58;;;;;;;4.90;3.78;;;14.40;95.20;;;;;;5014981;28;99218;-72
2022/05/12 05:34:29;;;;;;;5.43;3.05;;;14.60;94.90;;;;;;4997976;28;101632;-72
2022/05/12 05:36:56;;;;;;;7.20;3.00;;;14.90;94.70;;;;;;5014549;28;98533;-72
2022/05/12 05:39:26;;;;;;;8.05;3.45;;;15.30;94.50;;;;;;5014550;28;98563;-72
2022/05/12 05:41:58;;;;;;;7.47;3.95;;;15.80;93.90;;;;;;5032053;28;99206;-72
2022/05/12 05:44:25;;;;;;;6.05;3.92;;;16.30;93.20;;;;;;5013848;28;101490;-72
2022/05/12 05:46:52;;;;;;;4.75;3.10;;;16.70;92.40;;;;;;5033217;28;97631;-72
2022/05/12 05:49:18;;;;;;;6.95;3.53;;;17.20;91.60;;;;;;5014024;28;98486;-72
2022/05/12 05:54:34;;;;;;;7.95;4.63;;;17.70;90.60;;;;;;5013120;28;101846;-72
2022/05/12 05:57:01;;;;;;;5.22;4.60;;;17.80;90.40;;;;;;5018034;28;98500;-72
2022/05/12 05:59:28;;;;;;;10.75;3.90;;;17.80;90.40;;;;;;5018007;28;98605;-72
2022/05/12 06:01:56;;;;;;;7.95;3.75;;;17.90;90.10;;;;;;5016923;28;117918;-72
2022/05/12 06:04:23;;;;;;;6.95;5.15;;;17.90;90.10;;;;;;5035702;28;99139;-72
2022/05/12 06:06:50;;;;;;;8.13;5.20;;;17.90;90.20;;;;;;5035922;28;98607;-72
2022/05/12 06:09:18;;;;;;;7.55;4.68;;;17.90;90.00;;;;;;5017623;28;98648;-72
2022/05/12 06:11:46;;;;;;;8.40;5.03;;;17.90;88.30;;;;;;5034046;28;101073;-72
2022/05/12 06:14:13;;;;;;;11.75;5.20;;;17.90;88.40;;;;;;5017431;28;98682;-72
2022/05/12 06:16:40;;;;;;;7.20;3.70;;;18.00;88.20;;;;;;5017968;28;98591;-72
2022/05/12 06:19:07;;;;;;;4.97;3.70;;;17.90;88.40;;;;;;5016911;28;99618;-72
2022/05/12 06:21:36;;;;;;;8.63;5.35;;;17.90;88.50;;;;;;5017086;28;101972;-72
2022/05/12 06:24:03;;;;;;;7.43;4.68;;;18.00;88.50;;;;;;5035026;28;99058;-73
2022/05/12 06:26:30;;;;;;;10.27;4.63;;;18.00;88.30;;;;;;5034249;28;98483;-72
2022/05/12 06:28:58;;;;;;;11.95;5.32;;;17.90;88.20;;;;;;5034568;28;98505;-72
2022/05/12 06:31:29;;;;;;;9.00;5.00;;;18.00;88.30;;;;;;5035361;28;99364;-72
2022/05/12 06:33:57;;;;;;;9.20;4.97;;;18.10;87.90;;;;;;5033726;28;101719;-72
2022/05/12 06:36:27;;;;;;;9.60;6.38;;;18.20;87.60;;;;;;5018152;28;97744;-72
2022/05/12 06:38:54;;;;;;;6.75;5.80;;;18.20;87.60;;;;;;5034125;28;98657;-72
2022/05/12 06:41:21;;;;;;;7.55;6.72;;;18.20;87.30;;;;;;5035190;28;99565;-72
2022/05/12 06:43:48;;;;;;;9.45;6.30;;;18.20;87.30;;;;;;5016491;28;99181;-72
2022/05/12 06:46:17;;;;;;;8.00;5.13;;;18.20;87.40;;;;;;5017099;28;98607;-72
2022/05/12 06:48:50;;;;;;;9.10;5.63;;;18.10;87.40;;;;;;5033814;28;98646;-72
2022/05/12 06:51:17;;;;;;;11.73;6.55;;;18.00;87.90;;;;;;5016726;28;101761;-72
2022/05/12 06:53:45;;;;;;;8.90;6.43;;;17.90;88.00;;;;;;5034551;28;99369;-72
2022/05/12 06:56:15;;;;;;;7.47;5.22;;;17.90;87.70;;;;;;5035514;28;98490;-72
2022/05/12 06:58:42;;;;;;;10.65;7.28;;;17.80;88.10;;;;;;5017006;28;98555;-72
2022/05/12 07:01:10;;;;;;;8.90;5.20;;;17.90;88.20;;;;;;5033807;28;98633;-72
2022/05/12 07:03:38;;;;;;;8.07;5.45;;;18.00;88.10;;;;;;5016341;28;99458;-72
2022/05/12 07:06:07;;;;;;;9.23;6.45;;;18.00;87.80;;;;;;5034588;27;98517;-72
2022/05/12 07:08:41;;;;;;;10.18;5.80;;;18.00;87.90;;;;;;5015485;28;99998;-72
2022/05/12 07:11:12;;;;;;;8.10;5.32;;;18.10;88.10;;;;;;5000222;28;101961;-72
2022/05/12 07:13:39;;;;;;;10.13;5.60;;;18.10;87.90;;;;;;5034701;28;99173;-72
2022/05/12 07:16:07;;;;;;;8.00;5.07;;;18.10;87.80;;;;;;5035101;28;98552;-72
2022/05/12 07:18:37;;;;;;;6.97;4.32;;;18.20;87.20;;;;;;5034114;28;98584;-72
2022/05/12 07:27:09;;;;;;;7.70;5.32;;;18.10;86.40;;;;;;5035438;28;97771;-72
2022/05/12 07:29:36;;;;;;;9.60;4.05;;;18.00;86.00;;;;;;5034688;28;98649;-72
2022/05/12 07:32:03;;;;;;;5.47;3.25;;;18.10;86.20;;;;;;5034380;28;99527;-72
2022/05/12 07:34:31;;;;;;;5.43;3.70;;;18.20;85.00;;;;;;5034121;28;99494;-72
2022/05/12 07:36:58;;;;;;;5.85;3.53;;;18.10;84.30;;;;;;5033162;28;98536;-72
2022/05/12 07:39:28;;;;;;;8.50;4.00;;;18.20;84.70;;;;;;5016721;28;98523;-72
2022/05/12 07:42:04;;;;;;;9.68;3.10;;;18.20;84.70;;;;;;5034095;28;99209;-72
2022/05/12 07:44:49;;;;;;;5.63;4.43;;;18.20;83.60;;;;;;5034296;28;98959;-72
2022/05/12 07:47:16;;;;;;;6.35;3.25;;;18.20;83.20;;;;;;5034625;28;98538;-72
2022/05/12 07:49:43;;;;;;;4.82;2.33;;;18.30;82.10;;;;;;5015870;28;98539;-72
2022/05/12 07:52:32;;;;;;;4.35;2.67;;;18.40;82.00;;;;;;5016373;28;98459;-72
2022/05/12 07:55:02;;;;;;;5.30;2.60;;;18.50;80.80;;;;;;5018276;28;98567;-72
2022/05/12 07:57:28;;;;;;;5.43;3.22;;;18.90;79.40;;;;;;5033202;28;98508;-72
2022/05/12 07:59:55;;;;;;;4.55;3.20;;;19.70;77.90;;;;;;5033724;28;99310;-72
2022/05/12 08:02:22;;;;;;;3.63;3.08;;;20.70;75.70;;;;;;5033872;28;99295;-72
2022/05/12 08:04:51;;;;;;;5.32;2.50;;;22.00;72.50;;;;;;5015303;28;101642;-72
2022/05/12 08:07:18;;;;;;;9.15;2.95;;;23.20;68.90;;;;;;5034242;28;98468;-72
2022/05/12 08:09:45;;;;;;;4.50;2.92;;;24.40;63.80;;;;;;5034131;28;98471;-73
2022/05/12 08:12:12;;;;;;;4.78;2.20;;;25.50;60.70;;;;;;5033717;28;99481;-73
2022/05/12 08:14:39;;;;;;;5.82;3.45;;;26.60;57.30;;;;;;5015668;28;99037;-73
2022/05/12 08:17:06;;;;;;;3.70;3.10;;;27.70;53.80;;;;;;5015280;28;97863;-73
2022/05/12 08:19:34;;;;;;;2.70;2.03;;;28.70;50.90;;;;;;5015214;28;98554;-73
2022/05/12 08:22:05;;;;;;;3.58;3.08;;;29.50;45.30;;;;;;5033556;28;99369;-73
2022/05/12 08:24:32;;;;;;;4.30;2.20;;;30.10;42.90;;;;;;5033367;28;99199;-73
2022/05/12 08:26:59;;;;;;;2.72;2.53;;;30.80;41.10;;;;;;5015757;28;98504;-73
2022/05/12 08:29:26;;;;;;;4.80;2.22;;;31.10;41.10;;;;;;5015442;28;98594;-73
2022/05/12 08:31:53;;;;;;;2.78;1.48;;;31.40;39.00;;;;;;5014804;28;101789;-73
2022/05/12 08:34:21;;;;;;;5.65;2.63;;;31.40;38.30;;;;;;5033589;28;99143;-73
2022/05/12 08:36:49;;;;;;;4.63;2.60;;;31.30;37.60;;;;;;5015238;28;98589;-73
2022/05/12 08:39:17;;;;;;;2.95;2.47;;;31.20;37.40;;;;;;5016174;28;98519;-73
2022/05/12 08:42:01;;;;;;;3.97;2.10;;;31.10;36.50;;;;;;5033550;28;98475;-73
2022/05/12 08:44:35;;;;;;;5.10;3.15;;;30.80;36.40;;;;;;5031595;28;99542;-73
2022/05/12 08:47:06;;;;;;;3.40;1.60;;;30.00;37.50;;;;;;5032529;28;99096;-73
2022/05/12 08:49:46;;;;;;;8.80;2.83;;;29.60;38.30;;;;;;5033274;28;99641;-73
2022/05/12 08:52:28;;;;;;;2.38;1.90;;;29.40;38.90;;;;;;4998364;28;101880;-73
2022/05/12 08:55:02;;;;;;;2.47;1.48;;;28.80;40.00;;;;;;5032804;28;102142;-73
2022/05/12 08:57:38;;;;;;;5.68;2.63;;;28.20;41.70;;;;;;5015878;28;98779;-72
2022/05/12 09:00:12;;;;;;;2.73;1.30;;;27.70;42.90;;;;;;5033419;28;98533;-72
2022/05/12 09:02:57;;;;;;;4.03;2.83;;;27.30;42.80;;;;;;5033153;28;99252;-72
2022/05/12 09:05:30;;;;;;;3.17;2.85;;;26.80;42.90;;;;;;5031381;28;101547;-72
2022/05/12 09:07:57;;;;;;;;;;;26.30;44.40;;;;;;5034057;28;97838;-72
2022/05/12 09:10:48;;;;;;;5.80;1.95;;;25.70;45.40;;;;;;5034001;28;102344;-72
2022/05/12 09:13:33;;;;;;;2.90;1.80;;;25.60;46.60;;;;;;5032764;28;99563;-72
2022/05/12 09:16:38;;;;;;;4.90;1.88;;;25.40;47.60;;;;;;5032490;28;99258;-72
2022/05/12 09:19:05;;;;;;;4.13;1.90;;;25.30;47.80;;;;;;4931131;28;98757;-72
2022/05/12 09:21:35;;;;;;;3.47;2.15;;;25.00;46.60;;;;;;4915781;28;98687;-72
2022/05/12 09:24:04;;;;;;;3.92;2.17;;;24.80;47.90;;;;;;4980894;28;99173;-72
2022/05/12 09:26:31;;;;;;;4.75;1.70;;;24.50;48.50;;;;;;5032209;28;110656;-72
2022/05/12 09:29:24;;;;;;;4.68;2.75;;;24.40;50.00;;;;;;5032657;27;98515;-72
2022/05/12 09:31:57;;;;;;;4.95;3.72;;;24.40;49.80;;;;;;5014811;28;98632;-72
2022/05/12 09:34:32;;;;;;;3.45;2.83;;;24.40;50.20;;;;;;5032974;28;98581;-72
2022/05/12 09:37:21;;;;;;;5.45;3.28;;;24.40;50.20;;;;;;5032386;28;98465;-72
2022/05/12 09:39:57;;;;;;;3.90;2.40;;;24.40;50.20;;;;;;5014509;28;98553;-72
2022/05/12 09:42:27;;;;;;;3.28;1.90;;;24.00;50.80;;;;;;5030982;28;99314;-72
2022/05/12 09:45:17;;;;;;;5.47;2.35;;;23.80;50.80;;;;;;5013725;28;102029;-72
2022/05/12 09:47:43;;;;;;;3.47;1.95;;;23.60;51.50;;;;;;5030617;28;101510;-72
2022/05/12 09:50:24;;;;;;;2.75;2.00;;;23.40;52.40;;;;;;5032578;28;98903;-72
2022/05/12 09:52:54;;;;;;;4.25;2.58;;;23.40;52.10;;;;;;5015012;28;98700;-72
2022/05/12 09:55:38;;;;;;;5.03;1.80;;;23.40;52.50;;;;;;5032060;28;99237;-72
2022/05/12 09:58:29;;;;;;;3.72;3.38;;;23.50;53.70;;;;;;5013646;28;101408;-72
2022/05/12 10:01:30;;;;;;;5.32;1.80;;;23.60;54.10;;;;;;5033070;28;97663;-72
2022/05/12 10:07:59;;;;;;;2.95;1.90;;;23.60;50.90;;;;;;4997214;28;102486;-72
2022/05/12 10:10:19;;;;;;;3.10;2.22;;;23.60;51.10;;;;;;5017834;28;99345;-72
2022/05/12 10:13:05;;;;;;;4.47;2.00;;;23.70;51.10;;;;;;5014759;28;98468;-72
2022/05/12 10:15:36;;;;;;;4.60;2.47;;;23.70;50.90;;;;;;5031186;28;98624;-72
2022/05/12 10:18:08;;;;;;;2.38;2.15;;;23.70;50.90;;;;;;5013394;28;99259;-72
2022/05/12 10:20:42;;;;;;;5.32;1.70;;;23.60;49.60;;;;;;5031852;28;98985;-72
2022/05/12 10:23:51;;;;;;;4.57;2.88;;;23.30;50.10;;;;;;5014210;28;98545;-72
2022/05/12 10:26:38;;;;;;;5.40;2.03;;;23.10;51.20;;;;;;5026130;28;98495;-72
2022/05/12 10:29:20;;;;;;;3.50;1.60;;;22.80;52.80;;;;;;5032265;28;98658;-72
2022/05/12 10:31:59;;;;;;;3.25;1.63;;;22.50;53.40;;;;;;5032090;28;98421;-72
2022/05/12 10:35:04;;;;;;;5.22;1.60;;;22.30;54.10;;;;;;4997302;28;98947;-72
2022/05/12 10:37:51;;;;;;;2.97;1.60;;;22.30;54.50;;;;;;5031744;28;99226;-72
2022/05/12 10:40:38;;;;;;;2.78;1.60;;;22.30;53.00;;;;;;5013541;28;99339;-72
2022/05/12 10:43:46;;;;;;;2.72;2.50;;;22.30;52.40;;;;;;5033232;28;101546;-72
2022/05/12 10:46:31;;;;;;;2.95;1.92;;;22.20;51.00;;;;;;5014414;28;98600;-72
2022/05/12 10:49:07;;;;;;;2.90;1.60;;;22.40;51.30;;;;;;5035572;28;98489;-72
2022/05/12 10:51:52;;;;;;;3.83;1.98;;;22.70;49.70;;;;;;5035135;28;99355;-72
2022/05/12 10:55:00;;;;;;;4.35;2.35;;;23.00;49.60;;;;;;5034981;28;99022;-72
2022/05/12 10:57:33;;;;;;;3.47;1.45;;;23.20;49.40;;;;;;4954700;28;97907;-72
2022/05/12 11:00:08;;;;;;;1.70;1.00;;;23.30;48.50;;;;;;5035095;28;98377;-72
2022/05/12 11:02:35;;;;;;;3.63;1.80;;;23.50;46.70;;;;;;5017133;28;99347;-72
2022/05/12 11:05:28;;;;;;;3.58;2.08;;;23.50;46.00;;;;;;5034417;28;99181;-72
2022/05/12 11:08:05;;;;;;;2.55;2.42;;;23.50;45.00;;;;;;5030575;28;98513;-72
2022/05/12 11:10:44;;;;;;;4.05;1.63;;;23.50;44.40;;;;;;5016220;28;98557;-72
2022/05/12 11:13:22;;;;;;;4.00;1.73;;;23.50;44.80;;;;;;5034636;28;99234;-72
2022/05/12 11:15:59;;;;;;;3.20;1.02;;;23.60;44.40;;;;;;5034682;28;103162;-72
2022/05/12 11:18:40;;;;;;;3.08;1.52;;;23.60;44.90;;;;;;5034018;28;98557;-72
2022/05/12 11:21:27;;;;;;;3.20;2.42;;;23.50;45.20;;;;;;5017021;28;98591;-72
2022/05/12 11:24:18;;;;;;;1.90;1.67;;;23.60;45.20;;;;;;5033665;28;98646;-72
2022/05/12 11:27:01;;;;;;;3.88;2.28;;;23.60;45.90;;;;;;5016844;28;98577;-72
2022/05/12 11:29:51;;;;;;;2.75;1.23;;;23.60;46.00;;;;;;5034809;28;99230;-73
2022/05/12 11:32:42;;;;;;;2.50;1.58;;;23.60;45.80;;;;;;5034686;28;99289;-73
2022/05/12 11:35:15;;;;;;;4.47;1.85;;;23.70;46.00;;;;;;5034411;28;99394;-73
2022/05/12 11:37:43;;;;;;;;;;;23.80;46.60;;;;;;5016448;28;101469;-73
2022/05/12 11:40:35;;;;;;;3.70;2.30;;;23.80;45.60;;;;;;5034377;28;98644;-73
2022/05/12 11:46:10;;;;;;;4.05;2.28;;;24.00;44.30;;;;;;5016050;28;101989;-73
2022/05/12 11:48:50;;;;;;;3.25;1.90;;;24.00;44.10;;;;;;5016211;28;99132;-73
2022/05/12 11:51:43;;;;;;;3.45;2.35;;;23.90;43.00;;;;;;5016464;28;97719;-73
2022/05/12 11:54:34;;;;;;;2.15;1.35;;;24.00;44.60;;;;;;5032158;27;98702;-73
2022/05/12 11:57:19;;;;;;;3.58;1.00;;;24.10;45.00;;;;;;5022042;28;99341;-73
2022/05/12 11:59:57;;;;;;;4.65;1.95;;;24.20;44.60;;;;;;5015956;28;99278;-73
2022/05/12 12:02:33;;;;;;;4.80;2.45;;;24.20;44.10;;;;;;5016442;28;98889;-73
2022/05/12 12:05:06;;;;;;;4.50;2.63;;;24.20;43.60;;;;;;5015889;28;98872;-73
2022/05/12 12:07:35;;;;;;;2.92;1.40;;;24.20;44.40;;;;;;5033779;28;99177;-73
2022/05/12 12:10:39;;;;;;;2.33;2.13;;;24.30;44.50;;;;;;5033972;28;99021;-73
2022/05/12 12:13:15;;;;;;;3.13;2.38;;;24.30;43.90;;;;;;5012213;28;98689;-73
2022/05/12 12:16:04;;;;;;;3.53;1.60;;;24.20;44.00;;;;;;5016134;28;98471;-73
2022/05/12 12:18:34;;;;;;;3.15;1.88;;;24.20;43.90;;;;;;5033362;28;99954;-73
2022/05/12 12:21:35;;;;;;;1.92;1.50;;;24.40;43.20;;;;;;5032231;28;100897;-73
2022/05/12 12:24:21;;;;;;;3.83;2.55;;;24.50;43.20;;;;;;5033901;28;98493;-73
2022/05/12 12:26:51;;;;;;;5.50;1.83;;;24.40;42.60;;;;;;5033646;28;99233;-72
2022/05/12 12:29:21;;;;;;;2.75;2.55;;;24.20;43.10;;;;;;5033333;28;99221;-72
2022/05/12 12:31:50;;;;;;;3.63;1.60;;;24.20;43.40;;;;;;5015744;28;99075;-72
2022/05/12 12:34:21;;;;;;;3.40;1.55;;;24.10;43.10;;;;;;5033502;28;98478;-72
2022/05/12 12:36:51;;;;;;;4.75;1.60;;;24.10;44.00;;;;;;5033685;28;98465;-72
2022/05/12 12:39:37;;;;;;;4.32;1.92;;;24.00;43.90;;;;;;4998189;28;101989;-72
2022/05/12 12:42:21;;;;;;;3.50;1.95;;;23.90;44.30;;;;;;5033000;28;98981;-72
2022/05/12 12:45:00;;;;;;;3.75;1.88;;;23.90;43.70;;;;;;5033912;28;97727;-73
2022/05/12 12:47:46;;;;;;;3.80;1.00;;;24.00;44.40;;;;;;5033325;28;98585;-72
2022/05/12 12:50:22;;;;;;;2.92;1.10;;;24.00;43.80;;;;;;5033421;28;99336;-72
2022/05/12 12:52:50;;;;;;;3.65;1.27;;;24.00;43.50;;;;;;5014300;28;101921;-72
2022/05/12 12:58:03;;;;;;;2.92;2.30;;;23.70;43.70;;;;;;5033427;28;98392;-73
2022/05/12 13:00:36;;;;;;;4.00;1.92;;;23.70;44.10;;;;;;5014666;28;99367;-72
2022/05/12 13:03:03;;;;;;;3.80;1.50;;;23.70;44.30;;;;;;5031409;28;101850;-73
2022/05/12 13:05:32;;;;;;;4.78;2.17;;;23.60;44.30;;;;;;5015388;28;98557;-72
2022/05/12 13:08:02;;;;;;;2.80;1.27;;;23.70;44.40;;;;;;5031177;28;103055;-72
2022/05/12 13:10:32;;;;;;;3.67;1.20;;;23.60;44.30;;;;;;5033081;28;98681;-73
2022/05/12 13:13:02;;;;;;;3.67;1.58;;;23.60;44.40;;;;;;5032903;28;98576;-73
2022/05/12 13:15:32;;;;;;;3.50;1.25;;;23.50;44.40;;;;;;5031489;28;98557;-72
2022/05/12 13:18:17;;;;;;;3.25;2.28;;;23.50;44.10;;;;;;5014236;28;99267;-72
2022/05/12 13:20:55;;;;;;;4.38;2.35;;;23.50;43.80;;;;;;5016120;28;101883;-73
2022/05/12 13:23:31;;;;;;;2.17;1.33;;;23.40;43.70;;;;;;5014842;28;98930;-72
2022/05/12 13:26:02;;;;;;;3.53;1.40;;;23.40;43.40;;;;;;5033119;28;98440;-72
2022/05/12 13:28:31;;;;;;;3.58;1.30;;;23.40;43.30;;;;;;5032065;28;98473;-72
2022/05/12 13:31:23;;;;;;;2.17;1.10;;;23.40;43.20;;;;;;4997778;28;100355;-72
2022/05/12 13:34:00;;;;;;;2.78;1.92;;;23.40;44.30;;;;;;5013412;28;101746;-72